Time;durP1;ratioP1;P1;durP2;ratioP2;P2;SDS_P1;SDS_P2;PMS_P1;PMS_P2;Temp;Humidity;BMP_temperature;BMP_pressure;BME280_temperature;BME280_humidity;BME280_pressure;Samples;Min_cycle;Max_cycle;Signal;HPM_P1;HPM_P2
2021/12/18 00:00:30;;;;;;;14.40;7.83;;;;;;;1.55;100.00;-23859.03;5073854;28;20297;-68
2021/12/18 00:02:55;;;;;;;13.03;8.10;;;;;;;2.11;100.00;-23874.88;5073986;28;20268;-68
2021/12/18 00:05:21;;;;;;;16.77;9.30;;;;;;;2.08;100.00;-23873.88;5073691;28;20189;-70
2021/12/18 00:07:46;;;;;;;13.77;8.30;;;;;;;2.07;100.00;-23873.59;5072646;28;20182;-68
2021/12/18 00:10:13;;;;;;;15.70;8.10;;;;;;;2.09;100.00;-23874.31;5073861;28;20170;-68
2021/12/18 00:12:42;;;;;;;11.87;7.53;;;;;;;2.14;100.00;-23875.75;5073972;28;20174;-67
2021/12/18 00:15:08;;;;;;;11.67;7.47;;;;;;;1.88;100.00;-23868.31;5073883;28;20649;-68
2021/12/18 00:17:33;;;;;;;14.30;7.70;;;;;;;1.98;100.00;-23871.19;5074719;28;20169;-69
2021/12/18 00:19:58;;;;;;;13.23;7.30;;;;;;;1.32;100.00;-23852.59;5074294;28;20205;-68
2021/12/18 00:22:24;;;;;;;15.47;8.60;;;;;;;2.02;100.00;-23872.16;5091340;28;20310;-67
2021/12/18 00:24:49;;;;;;;13.90;8.43;;;;;;;1.76;100.00;-23864.88;5082064;28;20229;-70
2021/12/18 00:27:15;;;;;;;14.10;8.60;;;;;;;2.09;100.00;-23874.16;5071215;28;20680;-67
2021/12/18 00:29:40;;;;;;;13.20;8.47;;;;;;;2.00;100.00;-23871.75;5080306;28;20186;-68
2021/12/18 00:32:06;;;;;;;12.40;8.27;;;;;;;1.91;100.00;-23869.03;5072952;28;20633;-68
2021/12/18 00:34:31;;;;;;;13.60;7.80;;;;;;;2.28;100.00;-23879.59;5072719;28;20228;-69
2021/12/18 00:36:57;;;;;;;11.47;8.37;;;;;;;1.94;100.00;-23870.03;5072631;28;20208;-67
2021/12/18 00:39:22;;;;;;;12.13;8.13;;;;;;;2.40;100.00;-23882.88;5071049;28;20185;-66
2021/12/18 00:41:59;;;;;;;12.00;8.17;;;;;;;2.11;100.00;-23874.75;5072200;28;20257;-69
2021/12/18 00:44:25;;;;;;;13.17;8.47;;;;;;;2.22;100.00;-23878.03;5072432;28;20222;-67
2021/12/18 00:46:50;;;;;;;14.13;8.00;;;;;;;2.44;100.00;-23884.03;5072647;28;20178;-65
2021/12/18 00:49:18;;;;;;;14.33;8.40;;;;;;;2.03;100.00;-23872.47;5070936;28;20674;-69
2021/12/18 00:51:45;;;;;;;13.10;9.00;;;;;;;2.16;100.00;-23876.31;5070258;28;20624;-71
2021/12/18 00:54:11;;;;;;;11.60;8.10;;;;;;;1.85;100.00;-23867.31;5070191;28;20213;-68
2021/12/18 00:56:37;;;;;;;15.63;9.33;;;;;;;1.89;100.00;-23868.59;5072795;28;20210;-68
2021/12/18 00:59:03;;;;;;;15.83;9.83;;;;;;;2.20;100.00;-23877.31;5070674;28;20182;-67
2021/12/18 01:01:28;;;;;;;18.57;10.33;;;;;;;2.20;100.00;-23877.47;5081478;28;20193;-68
2021/12/18 01:03:55;;;;;;;16.20;10.17;;;;;;;2.19;100.00;-23877.03;5071681;28;20178;-66
2021/12/18 01:06:23;;;;;;;17.87;11.13;;;;;;;2.19;100.00;-23877.03;5072769;28;20170;-68
2021/12/18 01:08:52;;;;;;;21.10;12.30;;;;;;;1.87;100.00;-23868.03;5072129;28;20170;-66
2021/12/18 01:11:32;;;;;;;22.20;11.70;;;;;;;2.19;100.00;-23877.03;5072087;28;20633;-67
2021/12/18 01:24:56;;;;;;;19.93;12.10;;;;;;;2.13;100.00;-23875.31;5074797;28;20279;-69
2021/12/18 01:27:21;;;;;;;18.37;12.43;;;;;;;2.53;100.00;-23886.59;5071168;28;20221;-70
2021/12/18 01:29:47;;;;;;;17.47;12.37;;;;;;;2.57;100.00;-23887.88;5070745;28;20189;-67
2021/12/18 01:32:13;;;;;;;17.67;11.33;;;;;;;2.46;100.00;-23884.59;5072671;28;20170;-67
2021/12/18 01:34:39;;;;;;;17.43;10.87;;;;;;;2.51;100.00;-23886.16;5072256;28;20166;-70
2021/12/18 01:37:05;;;;;;;17.57;10.37;;;;;;;2.39;100.00;-23882.75;5072224;28;20185;-70
2021/12/18 01:39:31;;;;;;;15.57;9.77;;;;;;;2.43;100.00;-23883.88;5070983;28;20637;-68
2021/12/18 01:42:16;;;;;;;17.60;10.83;;;;;;;2.50;100.00;-23885.88;5079582;28;20189;-69
2021/12/18 01:53:06;;;;;;;17.67;10.53;;;;;;;2.08;100.00;-23874.03;5070940;28;20290;-68
2021/12/18 01:55:35;;;;;;;17.80;10.97;;;;;;;1.91;100.00;-23869.03;5071798;28;20665;-68
2021/12/18 01:58:02;;;;;;;17.87;11.40;;;;;;;2.02;100.00;-23872.16;5070589;28;20182;-71
2021/12/18 02:00:41;;;;;;;18.20;11.23;;;;;;;1.94;100.00;-23870.03;5070459;28;20174;-66
2021/12/18 02:03:07;;;;;;;18.67;11.97;;;;;;;1.95;100.00;-23870.31;5074241;28;20652;-68
2021/12/18 02:05:33;;;;;;;17.93;10.77;;;;;;;2.00;100.00;-23871.75;5072927;28;20209;-67
2021/12/18 02:07:58;;;;;;;17.47;11.03;;;;;;;2.09;100.00;-23874.16;5073158;28;20639;-67
2021/12/18 02:10:28;;;;;;;18.77;11.07;;;;;;;1.89;100.00;-23868.59;5076829;28;20189;-70
2021/12/18 02:21:17;;;;;;;18.57;10.90;;;;;;;2.11;100.00;-23874.75;5069940;28;20585;-68
2021/12/18 02:23:43;;;;;;;18.73;12.37;;;;;;;2.19;100.00;-23877.03;5078317;28;20185;-70
2021/12/18 02:26:09;;;;;;;19.60;12.20;;;;;;;2.31;100.00;-23880.47;5053815;28;20209;-66
2021/12/18 02:28:35;;;;;;;16.83;9.37;;;;;;;2.21;100.00;-23877.75;5071484;28;20261;-67
2021/12/18 02:31:01;;;;;;;15.97;10.87;;;;;;;1.95;100.00;-23870.16;5071594;28;20618;-70
2021/12/18 02:33:27;;;;;;;18.27;11.67;;;;;;;2.32;100.00;-23880.59;5071581;28;20174;-66
2021/12/18 02:35:56;;;;;;;19.53;13.47;;;;;;;2.23;100.00;-23878.16;5071691;28;20174;-70
2021/12/18 02:38:45;;;;;;;21.27;13.53;;;;;;;2.21;100.00;-23877.59;5072032;28;20223;-69
2021/12/18 02:41:22;;;;;;;18.10;12.30;;;;;;;2.22;100.00;-23877.88;5075462;28;20174;-71
2021/12/18 02:43:49;;;;;;;15.83;10.20;;;;;;;2.33;100.00;-23880.88;5075204;28;20217;-69
2021/12/18 02:46:20;;;;;;;14.43;8.90;;;;;;;2.36;100.00;-23881.88;5073746;28;20210;-69
2021/12/18 02:48:48;;;;;;;13.77;9.17;;;;;;;2.00;100.00;-23871.59;5075194;28;20178;-70
2021/12/18 02:51:14;;;;;;;16.00;8.90;;;;;;;2.36;100.00;-23881.88;5073025;28;20189;-70
2021/12/18 02:53:46;;;;;;;14.33;8.87;;;;;;;2.11;100.00;-23874.75;5084031;28;20190;-71
2021/12/18 02:56:14;;;;;;;14.23;9.97;;;;;;;1.85;100.00;-23867.31;5075226;28;20216;-70
2021/12/18 02:58:45;;;;;;;15.27;9.80;;;;;;;2.12;100.00;-23875.03;5074854;28;20209;-71
2021/12/18 03:01:19;;;;;;;17.33;10.10;;;;;;;2.13;100.00;-23875.31;5073654;28;20238;-69
2021/12/18 03:03:45;;;;;;;18.13;11.17;;;;;;;2.03;100.00;-23872.59;5074832;28;20668;-71
2021/12/18 03:06:26;;;;;;;18.90;11.53;;;;;;;1.98;100.00;-23871.03;5074994;28;20678;-67
2021/12/18 03:25:21;;;;;;;17.77;11.80;;;;;;;1.86;100.00;-23867.59;5083395;28;20221;-68
2021/12/18 03:27:47;;;;;;;17.70;11.37;;;;;;;2.08;100.00;-23873.88;5075286;28;20181;-67
2021/12/18 03:30:14;;;;;;;16.00;9.80;;;;;;;1.71;100.00;-23863.47;5081721;28;20190;-68
2021/12/18 03:32:40;;;;;;;20.90;11.37;;;;;;;1.92;100.00;-23869.31;5074336;28;20231;-70
2021/12/18 03:35:06;;;;;;;18.50;11.80;;;;;;;2.15;100.00;-23875.88;5074249;28;20253;-67
2021/12/18 03:37:34;;;;;;;17.77;10.97;;;;;;;2.10;100.00;-23874.47;5074567;28;20180;-68
2021/12/18 03:40:00;;;;;;;19.20;11.33;;;;;;;2.05;100.00;-23873.03;5072913;28;20182;-69
2021/12/18 03:42:26;;;;;;;14.90;10.23;;;;;;;2.33;100.00;-23881.03;5073203;28;20212;-68
2021/12/18 03:44:51;;;;;;;16.50;10.50;;;;;;;2.12;100.00;-23875.03;5082899;28;20229;-68
2021/12/18 03:47:17;;;;;;;16.73;10.60;;;;;;;2.20;100.00;-23877.47;5072567;28;20791;-69
2021/12/18 03:49:42;;;;;;;19.67;10.70;;;;;;;2.45;100.00;-23884.31;5073328;28;20170;-67
2021/12/18 03:52:08;;;;;;;17.57;11.20;;;;;;;2.37;100.00;-23882.03;5072924;28;20652;-69
2021/12/18 03:54:33;;;;;;;20.27;12.33;;;;;;;2.48;100.00;-23885.16;5079000;28;20171;-69
2021/12/18 03:56:59;;;;;;;20.03;12.60;;;;;;;2.43;100.00;-23883.88;5079327;28;20242;-70
2021/12/18 03:59:25;;;;;;;17.90;11.00;;;;;;;2.63;100.00;-23889.44;5072962;28;20185;-68
2021/12/18 04:01:50;;;;;;;14.20;8.73;;;;;;;2.04;100.00;-23872.75;5071951;28;20239;-68
2021/12/18 04:04:16;;;;;;;17.17;9.60;;;;;;;2.33;100.00;-23881.03;5071291;28;20175;-71
2021/12/18 04:06:42;;;;;;;15.73;9.53;;;;;;;2.00;100.00;-23871.59;5071982;28;20174;-68
2021/12/18 04:09:11;;;;;;;15.27;9.27;;;;;;;1.93;100.00;-23869.59;5082151;28;20178;-70
2021/12/18 04:11:37;;;;;;;17.77;10.30;;;;;;;2.14;100.00;-23875.59;5073164;28;20193;-68
2021/12/18 04:14:03;;;;;;;19.47;12.77;;;;;;;2.43;100.00;-23883.88;5071584;28;20660;-68
2021/12/18 04:16:29;;;;;;;17.03;10.60;;;;;;;2.06;100.00;-23873.31;5072944;28;20648;-67
2021/12/18 04:18:54;;;;;;;19.53;11.40;;;;;;;2.42;100.00;-23883.59;5073045;28;20227;-69
2021/12/18 04:21:20;;;;;;;15.87;9.60;;;;;;;2.16;100.00;-23876.31;5073040;28;20185;-70
2021/12/18 04:23:45;;;;;;;15.53;9.10;;;;;;;1.84;100.00;-23867.19;5073260;28;20243;-66
2021/12/18 04:26:10;;;;;;;16.50;10.33;;;;;;;2.01;100.00;-23872.03;5072924;28;20210;-68
2021/12/18 04:28:36;;;;;;;16.70;10.07;;;;;;;2.20;100.00;-23877.47;5072799;28;20170;-68
2021/12/18 04:31:01;;;;;;;16.43;10.17;;;;;;;2.09;100.00;-23874.16;5073048;28;20173;-66
2021/12/18 04:33:27;;;;;;;15.90;10.20;;;;;;;1.82;100.00;-23866.47;5073162;28;20185;-66
2021/12/18 04:35:52;;;;;;;19.23;10.63;;;;;;;1.83;100.00;-23866.88;5073583;28;20185;-67
2021/12/18 04:38:18;;;;;;;20.87;10.43;;;;;;;2.12;100.00;-23875.03;5073875;28;20181;-66
2021/12/18 04:40:44;;;;;;;16.77;10.30;;;;;;;1.83;100.00;-23866.88;5073069;28;20278;-68
2021/12/18 04:43:09;;;;;;;18.60;11.23;;;;;;;2.23;100.00;-23878.16;5079245;28;20286;-69
2021/12/18 04:45:35;;;;;;;17.00;10.70;;;;;;;1.77;100.00;-23865.16;5081861;28;20589;-70
2021/12/18 04:48:01;;;;;;;16.33;10.40;;;;;;;1.83;100.00;-23866.75;5076603;28;20207;-70
2021/12/18 04:50:27;;;;;;;17.60;10.23;;;;;;;2.00;100.00;-23871.59;5080860;28;20186;-70
2021/12/18 04:52:52;;;;;;;18.87;10.63;;;;;;;1.90;100.00;-23868.75;5081254;28;20228;-70
2021/12/18 04:55:19;;;;;;;43.57;24.47;;;;;;;2.21;100.00;-23877.75;5078338;28;20186;-67
2021/12/18 04:57:44;;;;;;;33.97;20.33;;;;;;;2.21;100.00;-23877.75;5071023;28;20622;-70
2021/12/18 05:00:14;;;;;;;29.00;17.37;;;;;;;1.75;100.00;-23864.75;5083102;28;20188;-69
2021/12/18 05:02:42;;;;;;;25.83;13.97;;;;;;;1.82;100.00;-23866.59;5076268;28;20242;-67
2021/12/18 05:05:11;;;;;;;28.20;15.57;;;;;;;1.81;100.00;-23866.31;5069461;28;20207;-69
2021/12/18 05:07:37;;;;;;;29.13;15.23;;;;;;;1.18;100.00;-23848.59;5071119;28;20671;-70
2021/12/18 05:10:07;;;;;;;29.30;16.90;;;;;;;1.46;100.00;-23856.47;5073084;28;20244;-69
2021/12/18 05:12:33;;;;;;;30.27;15.17;;;;;;;1.61;100.00;-23860.59;5082837;28;20191;-70
2021/12/18 05:14:58;;;;;;;33.00;17.63;;;;;;;1.38;100.00;-23854.03;5071664;28;20181;-65
2021/12/18 05:17:24;;;;;;;31.60;18.40;;;;;;;1.61;100.00;-23860.75;5068721;28;20190;-69
2021/12/18 05:19:49;;;;;;;33.00;20.37;;;;;;;2.04;100.00;-23872.75;5069348;28;20281;-71
2021/12/18 05:22:15;;;;;;;32.10;19.77;;;;;;;2.15;100.00;-23875.88;5070390;28;20181;-69
2021/12/18 05:24:40;;;;;;;36.30;21.33;;;;;;;1.68;100.00;-23862.75;5075205;28;20303;-67
2021/12/18 05:27:06;;;;;;;40.97;24.53;;;;;;;1.22;100.00;-23849.72;5081355;28;20216;-70
2021/12/18 05:29:31;;;;;;;41.43;25.37;;;;;;;1.93;100.00;-23869.59;5072086;28;20545;-68
2021/12/18 05:31:57;;;;;;;39.43;22.70;;;;;;;2.06;100.00;-23873.47;5072466;28;20575;-68
2021/12/18 05:34:25;;;;;;;38.90;22.27;;;;;;;1.92;100.00;-23869.31;5072121;28;20178;-67
2021/12/18 05:39:23;;;;;;;31.10;19.93;;;;;;;1.89;100.00;-23868.59;5072240;28;20181;-66
2021/12/18 05:41:50;;;;;;;29.17;17.13;;;;;;;1.68;100.00;-23862.75;5071594;28;20305;-70
2021/12/18 05:44:18;;;;;;;32.90;18.23;;;;;;;2.13;100.00;-23875.31;5072827;28;20221;-71
2021/12/18 05:46:44;;;;;;;29.03;15.87;;;;;;;1.75;100.00;-23864.75;5080251;28;20181;-70
2021/12/18 05:49:10;;;;;;;27.77;15.77;;;;;;;1.74;100.00;-23864.47;5073579;28;20559;-67
2021/12/18 05:51:36;;;;;;;24.60;13.90;;;;;;;1.65;100.00;-23861.88;5074040;28;20276;-70
2021/12/18 05:54:02;;;;;;;28.40;15.37;;;;;;;1.93;100.00;-23869.59;5080441;28;20218;-71
2021/12/18 05:56:28;;;;;;;34.57;21.20;;;;;;;1.77;100.00;-23865.31;5075822;28;20535;-69
2021/12/18 05:58:53;;;;;;;33.70;18.70;;;;;;;1.93;100.00;-23869.59;5071699;28;20192;-68
2021/12/18 06:01:21;;;;;;;27.37;17.00;;;;;;;1.60;100.00;-23860.47;5071478;28;20627;-68
2021/12/18 06:03:47;;;;;;;31.40;19.00;;;;;;;1.05;100.00;-23844.72;5071466;28;20185;-70
2021/12/18 06:06:13;;;;;;;33.43;19.47;;;;;;;2.16;100.00;-23876.31;5069021;28;20556;-71
2021/12/18 06:08:42;;;;;;;25.63;15.50;;;;;;;2.21;100.00;-23877.75;5079513;28;20189;-68
2021/12/18 06:11:12;;;;;;;28.50;14.93;;;;;;;2.07;100.00;-23873.75;5072365;28;20190;-69
2021/12/18 06:13:38;;;;;;;28.17;15.67;;;;;;;2.01;100.00;-23872.03;5075333;28;20193;-68
2021/12/18 06:16:05;;;;;;;23.90;14.60;;;;;;;2.44;100.00;-23884.16;5082599;28;20593;-66
2021/12/18 06:18:36;;;;;;;22.10;12.90;;;;;;;2.48;100.00;-23885.31;5082677;28;20657;-68
2021/12/18 06:21:03;;;;;;;24.40;13.40;;;;;;;2.48;100.00;-23885.31;5075723;28;20200;-66
2021/12/18 06:23:28;;;;;;;21.97;13.00;;;;;;;2.03;100.00;-23872.47;5078309;28;20569;-67
2021/12/18 06:25:54;;;;;;;21.07;12.23;;;;;;;2.28;100.00;-23879.44;5084469;28;20202;-72
2021/12/18 06:28:19;;;;;;;20.87;12.17;;;;;;;2.35;100.00;-23881.47;5082433;28;20194;-69
2021/12/18 06:30:45;;;;;;;19.57;11.23;;;;;;;2.59;100.00;-23888.44;5072479;28;20189;-67
2021/12/18 06:33:10;;;;;;;17.67;11.27;;;;;;;2.82;100.00;-23894.72;5078341;28;20185;-68
2021/12/18 06:35:36;;;;;;;17.50;10.70;;;;;;;2.77;100.00;-23893.31;5078010;28;20276;-69
2021/12/18 06:38:01;;;;;;;18.93;11.13;;;;;;;2.87;100.00;-23896.28;5083876;28;20181;-73
2021/12/18 06:40:27;;;;;;;17.17;9.93;;;;;;;3.07;100.00;-23902.00;5075084;28;20264;-67
2021/12/18 06:42:52;;;;;;;15.97;9.60;;;;;;;3.00;100.00;-23900.00;5075373;28;20182;-71
2021/12/18 06:45:18;;;;;;;14.97;9.80;;;;;;;3.14;100.00;-23903.84;5074423;28;20209;-70
2021/12/18 06:47:43;;;;;;;15.63;9.63;;;;;;;3.28;100.00;-23907.72;5082605;28;20592;-72
2021/12/18 06:50:09;;;;;;;16.70;10.27;;;;;;;3.34;100.00;-23909.41;5075015;28;20181;-70
2021/12/18 06:52:34;;;;;;;15.00;9.67;;;;;;;3.15;100.00;-23904.00;5073573;28;20178;-71
2021/12/18 06:55:00;;;;;;;15.57;9.37;;;;;;;3.38;100.00;-23910.69;5074930;28;20189;-68
2021/12/18 06:57:25;;;;;;;15.67;9.53;;;;;;;3.18;100.00;-23905.00;5073333;28;20178;-67
2021/12/18 06:59:51;;;;;;;15.90;8.90;;;;;;;3.67;100.00;-23918.69;5074899;28;20281;-72
2021/12/18 07:02:17;;;;;;;15.17;9.40;;;;;;;3.73;100.00;-23920.38;5075373;28;20169;-69
2021/12/18 07:04:43;;;;;;;16.47;9.30;;;;;;;3.49;100.00;-23913.69;5072816;28;20198;-71
2021/12/18 07:07:08;;;;;;;12.43;8.67;;;;;;;3.61;100.00;-23917.13;5074720;28;20223;-69
2021/12/18 07:09:34;;;;;;;15.30;9.57;;;;;;;3.61;100.00;-23917.13;5074008;28;20200;-72
2021/12/18 07:11:59;;;;;;;13.73;8.97;;;;;;;3.51;100.00;-23914.25;5074045;28;20542;-72
2021/12/18 07:14:25;;;;;;;15.50;9.47;;;;;;;3.81;100.00;-23922.81;5073938;28;20268;-72
2021/12/18 07:16:50;;;;;;;13.30;8.67;;;;;;;3.38;100.00;-23910.69;5074124;28;20532;-72
2021/12/18 07:19:16;;;;;;;13.73;8.83;;;;;;;3.66;100.00;-23918.41;5074121;28;20211;-73
2021/12/18 07:21:41;;;;;;;13.03;8.77;;;;;;;3.56;100.00;-23915.69;5074234;28;20192;-66
2021/12/18 07:24:07;;;;;;;13.63;8.50;;;;;;;3.55;100.00;-23915.53;5083582;28;20346;-70
2021/12/18 07:26:32;;;;;;;17.87;9.90;;;;;;;3.37;100.00;-23910.28;5077683;28;20764;-71
2021/12/18 07:28:59;;;;;;;18.40;10.50;;;;;;;3.19;100.00;-23905.28;5076817;28;20185;-69
2021/12/18 07:31:25;;;;;;;16.03;10.03;;;;;;;3.47;100.00;-23913.25;5077235;28;20219;-68
2021/12/18 07:33:51;;;;;;;16.20;10.07;;;;;;;3.16;100.00;-23904.28;5083456;28;20181;-69
2021/12/18 07:36:17;;;;;;;18.47;11.07;;;;;;;3.54;100.00;-23915.25;5082610;28;20189;-70
2021/12/18 07:38:43;;;;;;;15.57;9.90;;;;;;;3.37;100.00;-23910.41;5073557;28;20188;-68
2021/12/18 07:41:09;;;;;;;16.47;9.13;;;;;;;3.59;100.00;-23916.41;5083526;28;20276;-70
2021/12/18 07:43:35;;;;;;;14.83;9.00;;;;;;;3.56;100.00;-23915.69;5073194;28;20229;-68
2021/12/18 07:46:00;;;;;;;14.33;8.40;;;;;;;3.59;100.00;-23916.41;5072287;28;20190;-68
2021/12/18 07:48:26;;;;;;;16.67;9.60;;;;;;;3.62;100.00;-23917.41;5082258;28;20198;-68
2021/12/18 07:50:51;;;;;;;13.77;8.97;;;;;;;3.73;100.00;-23920.53;5082811;28;20679;-68
2021/12/18 07:53:17;;;;;;;15.33;9.43;;;;;;;3.67;100.00;-23918.81;5074003;28;20186;-67
2021/12/18 07:55:42;;;;;;;16.80;9.77;;;;;;;3.02;100.00;-23900.44;5073450;28;20178;-68
2021/12/18 07:58:08;;;;;;;17.23;9.57;;;;;;;3.93;100.00;-23926.22;5071962;28;20273;-69
2021/12/18 08:00:34;;;;;;;15.13;9.10;;;;;;;3.82;100.00;-23922.97;5074069;28;20159;-66
2021/12/18 08:03:00;;;;;;;14.33;8.43;;;;;;;3.65;100.00;-23918.25;5073379;28;20253;-67
2021/12/18 08:05:26;;;;;;;15.43;9.17;;;;;;;4.08;100.00;-23930.22;5073602;28;20189;-68
2021/12/18 08:07:51;;;;;;;14.60;8.90;;;;;;;3.90;100.00;-23925.38;5073846;28;20268;-69
2021/12/18 08:10:16;;;;;;;14.30;8.17;;;;;;;3.74;100.00;-23920.69;5074614;28;20173;-68
2021/12/18 08:12:43;;;;;;;15.33;8.87;;;;;;;3.64;100.00;-23917.81;5075892;28;20257;-65
2021/12/18 08:15:09;;;;;;;12.83;8.50;;;;;;;3.73;100.00;-23920.53;5072554;28;20189;-67
2021/12/18 08:17:35;;;;;;;12.93;8.37;;;;;;;4.09;100.00;-23930.50;5081653;28;20182;-67
2021/12/18 08:20:04;;;;;;;14.00;8.83;;;;;;;4.11;100.00;-23931.22;5081055;28;20560;-69
2021/12/18 08:22:30;;;;;;;13.00;7.83;;;;;;;4.36;100.00;-23938.34;5073374;28;20203;-66
2021/12/18 08:24:55;;;;;;;12.53;8.20;;;;;;;4.13;100.00;-23931.66;5073768;28;20272;-69
2021/12/18 08:27:21;;;;;;;13.40;8.27;;;;;;;4.28;100.00;-23936.06;5070812;28;20178;-68
2021/12/18 08:29:46;;;;;;;15.80;9.17;;;;;;;4.40;100.00;-23939.34;5066982;28;20545;-66
2021/12/18 08:32:12;;;;;;;15.10;9.53;;;;;;;4.60;100.00;-23945.03;5067687;28;20685;-66
2021/12/18 08:34:37;;;;;;;16.60;9.97;;;;;;;4.12;100.00;-23931.34;5067879;28;20225;-68
2021/12/18 08:37:03;;;;;;;19.20;11.33;;;;;;;4.68;100.00;-23947.31;5068610;28;20304;-67
2021/12/18 08:39:29;;;;;;;14.53;9.63;;;;;;;4.77;100.00;-23949.72;5069876;28;20182;-69
2021/12/18 08:41:55;;;;;;;21.37;11.40;;;;;;;4.66;100.00;-23946.59;5070266;28;20637;-66
2021/12/18 08:44:21;;;;;;;19.80;11.33;;;;;;;4.06;100.00;-23929.66;5070902;28;20322;-70
2021/12/18 08:46:46;;;;;;;17.20;10.20;;;;;;;4.45;100.00;-23940.91;5077946;28;20268;-70
2021/12/18 08:49:12;;;;;;;17.63;10.77;;;;;;;5.01;100.00;-23956.56;5081593;28;20178;-69
2021/12/18 08:51:38;;;;;;;15.10;9.27;;;;;;;5.10;100.00;-23958.97;5070045;28;20689;-68
2021/12/18 08:54:04;;;;;;;15.93;9.73;;;;;;;5.03;100.00;-23957.13;5074873;28;20189;-68
2021/12/18 08:56:30;;;;;;;14.53;9.30;;;;;;;5.60;100.00;-23973.03;5070752;28;20229;-67
2021/12/18 08:58:55;;;;;;;13.60;8.93;;;;;;;5.48;100.00;-23969.63;5071732;28;20695;-66
2021/12/18 09:01:23;;;;;;;11.70;8.23;;;;;;;5.66;100.00;-23974.75;5072763;28;20193;-69
2021/12/18 09:03:48;;;;;;;14.53;8.83;;;;;;;5.09;100.00;-23958.69;5074761;28;20303;-68
2021/12/18 09:06:14;;;;;;;13.13;8.43;;;;;;;5.38;100.00;-23966.94;5069406;28;20219;-68
2021/12/18 09:08:39;;;;;;;12.90;8.17;;;;;;;5.34;100.00;-23965.78;5080145;28;20269;-68
2021/12/18 09:11:05;;;;;;;14.03;8.57;;;;;;;5.35;100.00;-23966.09;5071757;28;20610;-68
2021/12/18 09:13:30;;;;;;;13.63;8.57;;;;;;;5.54;100.00;-23971.34;5070998;28;20182;-67
2021/12/18 09:15:56;;;;;;;13.53;8.37;;;;;;;5.76;100.00;-23977.59;5072493;28;20189;-65
2021/12/18 09:18:21;;;;;;;13.77;7.83;;;;;;;5.56;100.00;-23972.06;5071689;28;20565;-70
2021/12/18 09:20:47;;;;;;;14.40;8.03;;;;;;;6.05;100.00;-23985.84;5071440;28;20186;-70
2021/12/18 09:23:16;;;;;;;14.47;8.93;;;;;;;6.23;100.00;-23990.81;5072380;28;20212;-71
2021/12/18 09:25:42;;;;;;;12.83;7.87;;;;;;;6.63;100.00;-24002.03;5072002;28;20619;-67
2021/12/18 09:28:07;;;;;;;11.20;7.57;;;;;;;6.58;100.00;-24000.75;5071092;28;20174;-67
2021/12/18 09:30:33;;;;;;;12.63;8.73;;;;;;;6.48;100.00;-23997.75;5079789;28;20185;-69
2021/12/18 09:32:59;;;;;;;12.07;8.23;;;;;;;6.45;100.00;-23997.06;5071182;28;20181;-66
2021/12/18 09:35:25;;;;;;;12.03;7.67;;;;;;;6.19;100.00;-23989.81;5070251;28;20181;-69
2021/12/18 09:37:52;;;;;;;12.90;8.33;;;;;;;6.62;100.00;-24001.88;5072180;28;20181;-67
2021/12/18 09:40:20;;;;;;;13.17;7.90;;;;;;;6.54;100.00;-23999.63;5074039;28;20177;-69
2021/12/18 09:42:47;;;;;;;11.27;7.73;;;;;;;6.20;100.00;-23989.97;5075752;28;20274;-69
2021/12/18 09:45:14;;;;;;;13.17;7.67;;;;;;;6.30;100.00;-23992.66;5074797;28;20814;-68
2021/12/18 09:47:42;;;;;;;12.13;8.00;;;;;;;6.42;100.00;-23996.22;5072267;28;20182;-69
2021/12/18 09:50:08;;;;;;;11.97;7.87;;;;;;;6.09;100.00;-23986.84;5078969;28;20239;-66
2021/12/18 09:52:35;;;;;;;12.77;7.70;;;;;;;6.45;100.00;-23997.06;5071611;28;20185;-69
2021/12/18 09:55:04;;;;;;;12.13;7.83;;;;;;;6.46;100.00;-23997.19;5071605;28;20216;-68
2021/12/18 09:57:29;;;;;;;14.07;8.07;;;;;;;6.25;100.00;-23991.38;5070510;28;20629;-68
2021/12/18 09:59:54;;;;;;;12.13;7.33;;;;;;;6.14;100.00;-23988.41;5072362;28;20173;-71
2021/12/18 10:02:20;;;;;;;12.10;7.60;;;;;;;6.21;100.00;-23990.25;5071893;28;20166;-67
2021/12/18 10:04:46;;;;;;;11.57;7.50;;;;;;;6.10;100.00;-23987.25;5070491;28;20186;-70
2021/12/18 10:07:24;;;;;;;13.07;7.43;;;;;;;6.04;100.00;-23985.56;5072678;28;20162;-69
2021/12/18 10:09:57;;;;;;;12.63;8.13;;;;;;;6.50;100.00;-23998.34;5071258;28;20667;-66
2021/12/18 10:12:32;;;;;;;15.10;8.27;;;;;;;6.78;100.00;-24006.28;5078164;28;20177;-66
2021/12/18 10:15:24;;;;;;;11.37;5.27;;;;;;;6.74;100.00;-24005.16;5076155;28;20248;-68
2021/12/18 10:18:09;;;;;;;8.93;5.63;;;;;;;7.11;100.00;-24015.50;5062139;28;20630;-69
2021/12/18 10:20:37;;;;;;;7.87;5.40;;;;;;;6.70;100.00;-24004.00;5069063;28;20182;-68
2021/12/18 10:23:04;;;;;;;10.83;6.37;;;;;;;6.66;100.00;-24002.88;5067982;28;20185;-69
2021/12/18 10:25:39;;;;;;;9.53;5.50;;;;;;;6.58;100.00;-24000.75;5080153;28;20703;-68
2021/12/18 10:28:16;;;;;;;11.53;7.80;;;;;;;6.05;100.00;-23985.69;5071281;28;20181;-70
2021/12/18 10:30:53;;;;;;;10.50;6.90;;;;;;;6.49;100.00;-23998.19;5079323;28;20182;-68
2021/12/18 10:33:24;;;;;;;8.17;5.60;;;;;;;6.43;100.00;-23996.34;5071982;28;20181;-68
2021/12/18 10:35:53;;;;;;;7.57;5.23;;;;;;;6.30;100.00;-23992.66;5071904;28;20189;-69
2021/12/18 10:38:43;;;;;;;7.80;4.77;;;;;;;6.40;100.00;-23995.63;5073705;28;20190;-69
2021/12/18 10:41:32;;;;;;;5.60;4.20;;;;;;;5.92;100.00;-23982.00;5089705;28;20178;-69
2021/12/18 10:44:02;;;;;;;6.80;4.57;;;;;;;6.31;100.00;-23993.09;5089669;28;20252;-67
2021/12/18 10:46:29;;;;;;;6.83;4.23;;;;;;;6.46;100.00;-23997.34;5082529;28;20637;-66
2021/12/18 10:49:10;;;;;;;8.00;4.20;;;;;;;5.87;100.00;-23980.72;5078294;28;20189;-69
2021/12/18 10:51:37;;;;;;;6.27;4.47;;;;;;;5.88;100.00;-23981.00;5069147;28;20236;-67
2021/12/18 10:54:04;;;;;;;6.00;4.07;;;;;;;5.98;100.00;-23983.84;5077536;28;20178;-67
2021/12/18 10:56:39;;;;;;;6.30;4.63;;;;;;;5.22;100.00;-23962.38;5079419;28;20219;-67
2021/12/18 10:59:18;;;;;;;6.33;4.60;;;;;;;4.91;100.00;-23953.72;5072182;28;20549;-68
2021/12/18 11:01:49;;;;;;;8.13;4.97;;;;;;;4.82;100.00;-23951.28;5081895;28;20189;-67
2021/12/18 11:04:24;;;;;;;12.73;7.30;;;;;;;5.03;100.00;-23957.13;5057176;28;20613;-69
2021/12/18 11:06:49;;;;;;;15.77;10.20;;;;;;;4.74;100.00;-23949.00;5073377;28;20235;-68
2021/12/18 11:09:17;;;;;;;20.27;10.53;;;;;;;4.74;100.00;-23949.00;5078284;28;20268;-68
2021/12/18 11:14:19;;;;;;;7.20;4.60;;;;;;;3.14;100.00;-23903.84;5074985;28;20196;-66
2021/12/18 11:16:48;;;;;;;6.97;5.00;;;;;;;3.00;100.00;-23899.88;5081415;28;20192;-64
2021/12/18 11:19:16;;;;;;;6.93;5.00;;;;;;;2.67;100.00;-23890.72;5079739;28;20711;-68
2021/12/18 11:21:48;;;;;;;8.47;5.40;;;;;;;2.74;100.00;-23892.44;5075512;28;20185;-65
2021/12/18 11:24:14;;;;;;;9.70;6.03;;;;;;;2.56;100.00;-23887.59;5080055;28;20184;-65
2021/12/18 11:26:50;;;;;;;11.23;5.90;;;;;;;2.66;100.00;-23890.31;5080841;28;20216;-67
2021/12/18 11:29:22;;;;;;;10.70;6.73;;;;;;;2.70;100.00;-23891.44;5082133;28;20178;-66
2021/12/18 11:31:48;;;;;;;9.53;6.10;;;;;;;2.72;100.00;-23892.03;5072701;28;20188;-65
2021/12/18 11:34:15;;;;;;;10.43;7.27;;;;;;;3.01;100.00;-23900.16;5083650;28;20189;-65
2021/12/18 11:36:42;;;;;;;13.90;8.67;;;;;;;2.96;100.00;-23898.72;5073632;28;20190;-65
2021/12/18 11:39:09;;;;;;;12.60;8.70;;;;;;;3.45;100.00;-23912.69;5072925;28;20226;-65
2021/12/18 11:41:37;;;;;;;16.77;9.83;;;;;;;3.39;100.00;-23910.97;5080652;28;20596;-65
2021/12/18 11:44:27;;;;;;;11.93;8.87;;;;;;;3.46;100.00;-23912.84;5071644;28;20275;-69
2021/12/18 11:46:53;;;;;;;12.03;7.73;;;;;;;3.53;100.00;-23914.84;5072131;28;20209;-67
2021/12/18 11:49:21;;;;;;;12.20;7.67;;;;;;;3.63;100.00;-23917.53;5080083;28;20271;-69
2021/12/18 11:51:59;;;;;;;11.73;7.97;;;;;;;3.72;100.00;-23920.09;5070839;28;20181;-67
2021/12/18 11:55:01;;;;;;;11.93;7.63;;;;;;;3.78;100.00;-23921.81;5072890;28;20185;-68
2021/12/18 11:58:00;;;;;;;11.70;7.83;;;;;;;3.94;100.00;-23926.38;5068509;28;20204;-68
2021/12/18 12:00:39;;;;;;;11.60;7.17;;;;;;;3.98;100.00;-23927.50;5064276;28;20223;-66
2021/12/18 12:03:08;;;;;;;13.00;7.43;;;;;;;3.62;100.00;-23917.41;5070645;28;20224;-69
2021/12/18 12:05:48;;;;;;;11.27;7.07;;;;;;;4.23;100.00;-23934.50;5081277;28;20708;-70